createdAt,value
2022-10-12T00:01:01.176Z,100296.44
2022-10-12T00:02:03.517Z,100295.00
2022-10-12T00:03:05.733Z,100293.97
2022-10-12T00:04:08.231Z,100289.63
2022-10-12T00:05:11.020Z,100296.44
2022-10-12T00:06:17.435Z,100285.25
2022-10-12T00:07:21.708Z,100292.97
2022-10-12T00:08:23.857Z,100291.03
2022-10-12T00:09:26.125Z,100293.59
2022-10-12T00:10:28.359Z,100292.84
2022-10-12T00:11:30.740Z,100289.75
2022-10-12T00:12:34.001Z,100292.03
2022-10-12T00:13:39.084Z,100287.38
2022-10-12T00:14:41.192Z,100292.03
2022-10-12T00:15:44.063Z,100286.56
2022-10-12T00:16:47.363Z,100293.53
2022-10-12T00:17:50.904Z,100290.81
2022-10-12T00:18:56.978Z,100293.22
2022-10-12T00:20:01.521Z,100281.47
2022-10-12T00:21:10.008Z,100279.88
2022-10-12T00:22:12.159Z,100288.06
2022-10-12T00:23:14.649Z,100284.53
2022-10-12T00:24:18.096Z,100291.94
2022-10-12T00:25:20.379Z,100294.66
2022-10-12T00:26:26.117Z,100289.34
2022-10-12T00:27:28.236Z,100295.50
2022-10-12T00:28:30.896Z,100296.28
2022-10-12T00:29:33.187Z,100288.88
2022-10-12T00:30:35.686Z,100293.09
2022-10-12T00:31:40.413Z,100288.94
2022-10-12T00:32:44.921Z,100291.97
2022-10-12T00:33:50.226Z,100289.59
2022-10-12T00:34:52.306Z,100293.97
2022-10-12T00:35:55.234Z,100293.44
2022-10-12T00:36:58.337Z,100285.72
2022-10-12T00:38:00.346Z,100290.53
2022-10-12T00:39:06.029Z,100294.41
2022-10-12T00:40:10.134Z,100293.53
2022-10-12T00:41:13.417Z,100297.59
2022-10-12T00:42:17.862Z,100292.13
2022-10-12T00:43:42.015Z,100290.91
2022-10-12T00:44:51.191Z,100292.03
2022-10-12T00:45:53.370Z,100286.47
2022-10-12T00:46:58.916Z,100286.47
2022-10-12T00:48:04.712Z,100285.16
2022-10-12T00:49:20.403Z,100285.53
2022-10-12T00:50:28.015Z,100289.88
2022-10-12T00:51:30.619Z,100282.47
2022-10-12T00:52:42.629Z,100286.47
2022-10-12T00:53:52.813Z,100285.06
2022-10-12T00:54:56.307Z,100279.41
2022-10-12T00:56:04.905Z,100286.94
2022-10-12T00:57:07.954Z,100292.75
2022-10-12T00:58:12.166Z,100287.94
2022-10-12T00:59:19.876Z,100280.06
2022-10-12T01:00:23.379Z,100280.06
2022-10-12T01:01:26.650Z,100282.13
2022-10-12T01:02:33.572Z,100283.25
2022-10-12T01:03:36.431Z,100280.06
2022-10-12T01:04:39.790Z,100277.78
2022-10-12T01:05:41.875Z,100276.47
2022-10-12T01:06:46.482Z,100277.44
2022-10-12T01:07:48.960Z,100274.88
2022-10-12T01:08:52.272Z,100280.34
2022-10-12T01:09:55.490Z,100275.81
2022-10-12T01:10:57.912Z,100279.97
2022-10-12T01:12:05.604Z,100283.53
2022-10-12T01:13:08.100Z,100272.16
2022-10-12T01:14:12.004Z,100274.88
2022-10-12T01:15:14.813Z,100273.88
2022-10-12T01:16:42.968Z,100273.72
2022-10-12T01:18:04.578Z,100274.06
2022-10-12T01:19:46.346Z,100273.28
2022-10-12T01:21:14.983Z,100266.72
2022-10-12T01:22:19.979Z,100267.22
2022-10-12T01:23:47.044Z,100270.44
2022-10-12T01:24:54.593Z,100260.75
2022-10-12T01:26:15.244Z,100263.97
2022-10-12T01:27:45.593Z,100264.59
2022-10-12T01:28:56.723Z,100258.16
2022-10-12T01:30:01.900Z,100258.47
2022-10-12T01:31:20.340Z,100256.69
2022-10-12T01:32:29.561Z,100251.03
2022-10-12T01:33:53.380Z,100250.88
2022-10-12T01:35:28.047Z,100256.69
2022-10-12T01:36:38.335Z,100252.34
2022-10-12T01:37:50.044Z,100246.59
2022-10-12T01:39:02.854Z,100251.28
2022-10-12T01:40:24.539Z,100250.44
2022-10-12T01:41:50.788Z,100247.41
2022-10-12T01:42:56.872Z,100253.38
2022-10-12T01:43:59.812Z,100254.84
2022-10-12T01:45:05.011Z,100253.38
2022-10-12T01:46:27.312Z,100250.69
2022-10-12T01:47:29.793Z,100246.31
2022-10-12T01:48:31.887Z,100248.88
2022-10-12T01:49:35.738Z,100244.25
2022-10-12T01:50:50.477Z,100243.75
2022-10-12T01:51:55.228Z,100247.63
2022-10-12T01:53:01.628Z,100246.03
2022-10-12T01:54:16.860Z,100247.91
2022-10-12T01:55:48.103Z,100243.75
2022-10-12T01:57:13.480Z,100248.28
2022-10-12T01:58:25.327Z,100249.59
2022-10-12T02:00:07.459Z,100249.22
2022-10-12T02:01:51.879Z,100245.66
2022-10-12T02:03:24.330Z,100248.09
2022-10-12T02:04:41.967Z,100245.22
2022-10-12T02:05:58.502Z,100244.25
2022-10-12T02:07:33.222Z,100241.50
2022-10-12T02:08:42.931Z,100242.44
2022-10-12T02:09:45.322Z,100252.06
2022-10-12T02:11:00.854Z,100243.00
2022-10-12T02:12:11.441Z,100244.13
2022-10-12T02:13:16.382Z,100239.16
2022-10-12T02:14:23.084Z,100236.91
2022-10-12T02:15:31.501Z,100238.47
2022-10-12T02:16:42.022Z,100237.69
2022-10-12T02:17:48.616Z,100235.16
2022-10-12T02:18:54.591Z,100233.53
2022-10-12T02:19:59.449Z,100238.34
2022-10-12T02:21:03.963Z,100237.06
2022-10-12T02:22:09.472Z,100242.09
2022-10-12T02:23:13.458Z,100233.78
2022-10-12T02:24:18.474Z,100241.66
2022-10-12T02:25:24.855Z,100241.66
2022-10-12T02:26:28.402Z,100237.13
2022-10-12T02:27:33.211Z,100235.84
2022-10-12T02:28:37.551Z,100237.66
2022-10-12T02:29:42.935Z,100237.66
2022-10-12T02:31:14.239Z,100235.22
2022-10-12T02:32:34.470Z,100236.03
2022-10-12T02:34:02.347Z,100233.13
2022-10-12T02:35:18.051Z,100232.28
2022-10-12T02:36:29.629Z,100231.50
2022-10-12T02:37:49.999Z,100233.88
2022-10-12T02:38:59.615Z,100230.66
2022-10-12T02:40:10.513Z,100227.16
2022-10-12T02:41:21.109Z,100237.13
2022-10-12T02:43:05.309Z,100232.47
2022-10-12T02:44:02.831Z,100230.88
2022-10-12T02:45:09.275Z,100236.78
2022-10-12T02:46:15.065Z,100228.59
2022-10-12T02:47:19.708Z,100237.25
2022-10-12T02:48:25.166Z,100230.00
2022-10-12T02:49:32.218Z,100225.69
2022-10-12T02:50:37.208Z,100229.22
2022-10-12T02:51:42.396Z,100226.28
2022-10-12T02:52:45.392Z,100221.78
2022-10-12T02:53:50.811Z,100226.81
2022-10-12T02:54:53.515Z,100228.22
2022-10-12T02:56:03.303Z,100227.09
2022-10-12T02:57:06.391Z,100219.19
2022-10-12T02:58:08.378Z,100222.47
2022-10-12T02:59:11.496Z,100226.31
2022-10-12T03:00:16.011Z,100220.34
2022-10-12T03:01:22.583Z,100214.56
2022-10-12T03:02:24.694Z,100228.41
2022-10-12T03:03:26.743Z,100232.91
2022-10-12T03:04:30.049Z,100232.72
2022-10-12T03:05:32.228Z,100236.91
2022-10-12T03:06:35.381Z,100239.28
2022-10-12T03:07:38.039Z,100236.22
2022-10-12T03:08:40.298Z,100238.47
2022-10-12T03:09:42.298Z,100235.44
2022-10-12T03:10:44.365Z,100241.22
2022-10-12T03:11:46.557Z,100230.28
2022-10-12T03:12:50.299Z,100231.44
2022-10-12T03:13:53.786Z,100235.56
2022-10-12T03:15:01.354Z,100229.28
2022-10-12T03:16:11.575Z,100230.09
2022-10-12T03:17:13.632Z,100223.97
2022-10-12T03:18:15.712Z,100228.22
2022-10-12T03:19:20.598Z,100228.22
2022-10-12T03:20:22.992Z,100229.53
2022-10-12T03:21:25.113Z,100230.19
2022-10-12T03:22:27.291Z,100231.78
2022-10-12T03:23:37.441Z,100231.94
2022-10-12T03:24:46.185Z,100242.44
2022-10-12T03:25:50.535Z,100232.19
2022-10-12T03:26:52.737Z,100229.91
2022-10-12T03:27:55.031Z,100232.19
2022-10-12T03:28:57.638Z,100227.16
2022-10-12T03:30:00.486Z,100229.91
2022-10-12T03:31:03.222Z,100226.72
2022-10-12T03:32:05.447Z,100218.53
2022-10-12T03:33:08.259Z,100215.78
2022-10-12T03:34:10.282Z,100218.31
2022-10-12T03:35:12.398Z,100226.25
2022-10-12T03:36:15.707Z,100224.44
2022-10-12T03:37:18.053Z,100227.00
2022-10-12T03:38:20.244Z,100223.59
2022-10-12T03:39:23.579Z,100229.06
2022-10-12T03:40:26.453Z,100223.78
2022-10-12T03:41:28.490Z,100226.03
2022-10-12T03:42:32.406Z,100225.09
2022-10-12T03:43:35.346Z,100224.44
2022-10-12T03:44:42.965Z,100233.13
2022-10-12T03:45:44.974Z,100231.50
2022-10-12T03:46:47.039Z,100230.88
2022-10-12T03:47:49.272Z,100231.50
2022-10-12T03:48:53.904Z,100242.44
2022-10-12T03:49:56.603Z,100227.84
2022-10-12T03:51:02.251Z,100229.75
2022-10-12T03:52:05.472Z,100229.16
2022-10-12T03:53:10.891Z,100233.16
2022-10-12T03:54:12.985Z,100231.50
2022-10-12T03:55:15.961Z,100239.22
2022-10-12T03:56:18.468Z,100238.88
2022-10-12T03:57:20.467Z,100239.50
2022-10-12T03:58:23.755Z,100232.97
2022-10-12T03:59:25.893Z,100236.97
2022-10-12T04:00:28.581Z,100235.22
2022-10-12T04:01:30.663Z,100236.84
2022-10-12T04:02:36.661Z,100229.44
2022-10-12T04:03:38.639Z,100225.75
2022-10-12T04:04:43.215Z,100228.03
2022-10-12T04:05:45.734Z,100224.19
2022-10-12T04:06:48.359Z,100231.22
2022-10-12T04:07:51.617Z,100227.38
2022-10-12T04:08:53.669Z,100229.44
2022-10-12T04:09:55.679Z,100227.66
2022-10-12T04:10:57.829Z,100222.84
2022-10-12T04:12:00.349Z,100225.41
2022-10-12T04:13:02.807Z,100223.75
2022-10-12T04:14:04.897Z,100234.03
2022-10-12T04:15:07.643Z,100232.09
2022-10-12T04:16:10.334Z,100228.03
2022-10-12T04:17:14.951Z,100223.97
2022-10-12T04:18:16.947Z,100223.19
2022-10-12T04:19:19.442Z,100227.19
2022-10-12T04:20:21.467Z,100227.81
2022-10-12T04:21:25.828Z,100234.69
2022-10-12T04:22:29.248Z,100221.72
2022-10-12T04:23:32.272Z,100230.50
2022-10-12T04:24:37.564Z,100237.72
2022-10-12T04:25:39.992Z,100233.56
2022-10-12T04:26:42.190Z,100230.19
2022-10-12T04:27:46.891Z,100236.78
2022-10-12T04:28:50.295Z,100233.56
2022-10-12T04:30:00.255Z,100236.31
2022-10-12T04:31:02.188Z,100235.66
2022-10-12T04:32:06.797Z,100240.66
2022-10-12T04:33:12.430Z,100234.69
2022-10-12T04:34:16.745Z,100239.53
2022-10-12T04:35:18.772Z,100235.31
2022-10-12T04:36:20.857Z,100242.69
2022-10-12T04:37:22.844Z,100230.78
2022-10-12T04:38:25.963Z,100240.94
2022-10-12T04:39:28.690Z,100241.50
2022-10-12T04:40:30.872Z,100238.25
2022-10-12T04:41:34.062Z,100234.72
2022-10-12T04:42:36.154Z,100233.72
2022-10-12T04:43:38.142Z,100235.59
2022-10-12T04:44:40.230Z,100242.94
2022-10-12T04:45:42.738Z,100245.75
2022-10-12T04:46:45.252Z,100234.97
2022-10-12T04:47:47.289Z,100239.16
2022-10-12T04:48:49.453Z,100239.00
2022-10-12T04:49:52.317Z,100230.09
2022-10-12T04:50:54.409Z,100226.53
2022-10-12T04:51:56.500Z,100218.81
2022-10-12T04:52:58.589Z,100225.81
2022-10-12T04:54:00.716Z,100225.91
2022-10-12T04:55:02.889Z,100230.44
2022-10-12T04:56:06.447Z,100221.97
2022-10-12T04:57:08.809Z,100222.91
2022-10-12T04:58:10.934Z,100224.66
2022-10-12T04:59:13.047Z,100214.06
2022-10-12T05:00:15.369Z,100214.28
2022-10-12T05:01:17.544Z,100205.16
2022-10-12T05:02:19.618Z,100221.34
2022-10-12T05:03:21.868Z,100217.97
2022-10-12T05:04:24.712Z,100225.66
2022-10-12T05:05:26.826Z,100222.16
2022-10-12T05:06:28.927Z,100224.56
2022-10-12T05:07:31.122Z,100218.78
2022-10-12T05:08:33.224Z,100228.47
2022-10-12T05:09:35.917Z,100223.78
2022-10-12T05:10:37.919Z,100225.25
2022-10-12T05:11:40.978Z,100229.97
2022-10-12T05:12:43.205Z,100228.44
2022-10-12T05:13:47.735Z,100222.06
2022-10-12T05:14:49.756Z,100225.63
2022-10-12T05:15:53.201Z,100224.56
2022-10-12T05:16:57.240Z,100221.13
2022-10-12T05:17:59.304Z,100225.91
2022-10-12T05:19:01.767Z,100227.38
2022-10-12T05:20:04.950Z,100219.41
2022-10-12T05:21:08.231Z,100228.41
2022-10-12T05:22:10.214Z,100230.56
2022-10-12T05:23:13.475Z,100234.16
2022-10-12T05:24:15.933Z,100230.66
2022-10-12T05:25:20.201Z,100233.78
2022-10-12T05:26:22.815Z,100232.06
2022-10-12T05:27:25.929Z,100226.19
2022-10-12T05:28:29.136Z,100233.41
2022-10-12T05:29:32.420Z,100233.16
2022-10-12T05:30:35.112Z,100232.78
2022-10-12T05:31:38.097Z,100231.84
2022-10-12T05:32:40.633Z,100235.25
2022-10-12T05:33:43.645Z,100224.50
2022-10-12T05:34:45.986Z,100223.66
2022-10-12T05:35:52.103Z,100223.22
2022-10-12T05:36:58.449Z,100225.44
2022-10-12T05:38:00.693Z,100226.06
2022-10-12T05:39:05.107Z,100224.16
2022-10-12T05:40:07.883Z,100223.59
2022-10-12T05:41:13.932Z,100223.47
2022-10-12T05:42:16.683Z,100226.50
2022-10-12T05:43:19.136Z,100224.81
2022-10-12T05:44:21.287Z,100221.84
2022-10-12T05:45:23.979Z,100221.47
2022-10-12T05:46:26.206Z,100225.13
2022-10-12T05:47:28.834Z,100218.75
2022-10-12T05:48:33.544Z,100219.84
2022-10-12T05:49:41.390Z,100212.91
2022-10-12T05:50:45.001Z,100219.66
2022-10-12T05:51:47.410Z,100217.06
2022-10-12T05:52:52.906Z,100218.47
2022-10-12T05:53:55.752Z,100213.44
2022-10-12T05:54:57.791Z,100215.47
2022-10-12T05:56:01.140Z,100216.50
2022-10-12T05:57:04.203Z,100225.31
2022-10-12T05:58:07.147Z,100215.88
2022-10-12T05:59:11.275Z,100214.50
2022-10-12T06:00:14.158Z,100215.16
2022-10-12T06:01:16.705Z,100220.69
2022-10-12T06:02:19.763Z,100222.25
2022-10-12T06:03:25.965Z,100209.50
2022-10-12T06:04:28.922Z,100225.50
2022-10-12T06:05:30.970Z,100226.56
2022-10-12T06:06:33.532Z,100220.53
2022-10-12T06:07:36.717Z,100209.94
2022-10-12T06:08:39.519Z,100221.00
2022-10-12T06:09:41.831Z,100219.47
2022-10-12T06:10:46.660Z,100216.38
2022-10-12T06:11:48.723Z,100220.78
2022-10-12T06:12:51.299Z,100224.41
2022-10-12T06:13:57.558Z,100214.31
2022-10-12T06:15:00.277Z,100208.91
2022-10-12T06:16:06.963Z,100220.91
2022-10-12T06:17:12.609Z,100217.13
2022-10-12T06:18:15.625Z,100218.03
2022-10-12T06:19:17.944Z,100208.00
2022-10-12T06:20:20.195Z,100202.50
2022-10-12T06:21:33.181Z,100209.72
2022-10-12T06:22:36.385Z,100208.22
2022-10-12T06:23:41.290Z,100209.50
2022-10-12T06:24:44.639Z,100208.88
2022-10-12T06:25:49.841Z,100206.56
2022-10-12T06:26:52.081Z,100208.59
2022-10-12T06:27:55.673Z,100205.06
2022-10-12T06:29:01.043Z,100212.59
2022-10-12T06:30:06.869Z,100208.16
2022-10-12T06:31:14.034Z,100205.06
2022-10-12T06:32:18.169Z,100203.03
2022-10-12T06:33:21.822Z,100206.78
2022-10-12T06:34:24.087Z,100209.31
2022-10-12T06:35:26.351Z,100208.31
2022-10-12T06:36:28.603Z,100204.91
2022-10-12T06:37:48.985Z,100202.41
2022-10-12T06:38:53.024Z,100205.06
2022-10-12T06:39:55.637Z,100194.47
2022-10-12T06:40:57.993Z,100194.19
2022-10-12T06:42:02.564Z,100198.50
2022-10-12T06:43:06.751Z,100194.41
2022-10-12T06:44:09.750Z,100190.66
2022-10-12T06:45:14.671Z,100202.03
2022-10-12T06:46:16.846Z,100200.47
2022-10-12T06:47:18.951Z,100199.94
2022-10-12T06:48:22.945Z,100195.56
2022-10-12T06:49:25.041Z,100193.88
2022-10-12T06:50:30.100Z,100202.34
2022-10-12T06:51:32.263Z,100206.78
2022-10-12T06:52:34.710Z,100199.91
2022-10-12T06:53:37.138Z,100201.34
2022-10-12T06:54:39.136Z,100203.19
2022-10-12T06:55:42.450Z,100198.13
2022-10-12T06:56:45.052Z,100207.53
2022-10-12T06:57:47.267Z,100203.94
2022-10-12T06:58:56.669Z,100196.66
2022-10-12T06:59:59.103Z,100198.13
2022-10-12T07:01:05.897Z,100201.41
2022-10-12T07:02:11.112Z,100201.31
2022-10-12T07:03:14.560Z,100199.00
2022-10-12T07:04:18.595Z,100202.13
2022-10-12T07:05:21.553Z,100203.06
2022-10-12T07:06:23.693Z,100202.09
2022-10-12T07:07:26.463Z,100197.72
2022-10-12T07:08:28.682Z,100201.69
2022-10-12T07:09:30.877Z,100202.13
2022-10-12T07:10:33.514Z,100207.31
2022-10-12T07:11:35.729Z,100193.22
2022-10-12T07:12:39.422Z,100197.59
2022-10-12T07:13:42.554Z,100189.53
2022-10-12T07:14:44.657Z,100195.38
2022-10-12T07:15:50.564Z,100188.25
2022-10-12T07:16:55.362Z,100193.75
2022-10-12T07:17:57.788Z,100192.31
2022-10-12T07:19:00.085Z,100187.31
2022-10-12T07:20:02.443Z,100190.94
2022-10-12T07:21:05.729Z,100183.38
2022-10-12T07:22:08.181Z,100195.03
2022-10-12T07:23:10.847Z,100198.03
2022-10-12T07:24:13.415Z,100191.56
2022-10-12T07:25:15.612Z,100184.03
2022-10-12T07:26:17.724Z,100191.91
2022-10-12T07:27:19.916Z,100198.00
2022-10-12T07:28:22.514Z,100186.88
2022-10-12T07:29:25.035Z,100191.91
2022-10-12T07:30:27.287Z,100193.16
2022-10-12T07:31:29.459Z,100191.53
2022-10-12T07:32:31.959Z,100195.72
2022-10-12T07:33:35.653Z,100200.19
2022-10-12T07:34:38.935Z,100187.16
2022-10-12T07:36:03.415Z,100190.66
2022-10-12T07:37:06.455Z,100192.41
2022-10-12T07:38:08.645Z,100181.78
2022-10-12T07:39:11.079Z,100184.72
2022-10-12T07:40:13.272Z,100189.25
2022-10-12T07:41:15.545Z,100191.53
2022-10-12T07:42:19.494Z,100185.75
2022-10-12T07:43:22.312Z,100188.66
2022-10-12T07:44:26.864Z,100186.09
2022-10-12T07:45:29.118Z,100179.63
2022-10-12T07:46:31.187Z,100188.75
2022-10-12T07:47:33.913Z,100176.47
2022-10-12T07:48:36.312Z,100172.38
2022-10-12T07:49:38.438Z,100176.78
2022-10-12T07:50:40.520Z,100184.97
2022-10-12T07:51:43.704Z,100185.00
2022-10-12T07:52:46.090Z,100186.09
2022-10-12T07:53:49.651Z,100178.97
2022-10-12T07:54:51.724Z,100182.88
2022-10-12T07:56:00.618Z,100185.50
2022-10-12T07:57:02.913Z,100179.00
2022-10-12T07:58:05.947Z,100180.53
2022-10-12T07:59:08.328Z,100177.59
2022-10-12T08:00:10.751Z,100177.22
2022-10-12T08:01:15.831Z,100181.88
2022-10-12T08:02:19.010Z,100178.88
2022-10-12T08:03:21.082Z,100177.66
2022-10-12T08:04:23.268Z,100181.59
2022-10-12T08:05:27.269Z,100178.13
2022-10-12T08:06:32.433Z,100170.91
2022-10-12T08:07:35.122Z,100175.25
2022-10-12T08:08:40.877Z,100180.66
2022-10-12T08:09:43.224Z,100176.41
2022-10-12T08:10:45.219Z,100173.31
2022-10-12T08:11:47.577Z,100179.72
2022-10-12T08:12:52.227Z,100172.16
2022-10-12T08:13:54.486Z,100174.38
2022-10-12T08:14:56.733Z,100172.97
2022-10-12T08:15:58.953Z,100165.16
2022-10-12T08:17:00.986Z,100164.66
2022-10-12T08:18:03.366Z,100167.06
2022-10-12T08:19:05.681Z,100162.09
2022-10-12T08:20:08.599Z,100171.03
2022-10-12T08:21:13.313Z,100163.28
2022-10-12T08:22:16.265Z,100170.25
2022-10-12T08:23:19.615Z,100162.84
2022-10-12T08:24:22.189Z,100163.28
2022-10-12T08:25:25.829Z,100164.31
2022-10-12T08:26:29.371Z,100158.31
2022-10-12T08:27:32.305Z,100161.78
2022-10-12T08:28:35.972Z,100168.53
2022-10-12T08:29:39.432Z,100161.16
2022-10-12T08:30:41.881Z,100161.94
2022-10-12T08:31:44.175Z,100162.31
2022-10-12T08:32:46.811Z,100164.50
2022-10-12T08:33:49.275Z,100160.00
2022-10-12T08:34:52.066Z,100160.25
2022-10-12T08:35:55.284Z,100160.56
2022-10-12T08:37:02.329Z,100150.81
2022-10-12T08:38:04.429Z,100157.31
2022-10-12T08:39:07.239Z,100159.63
2022-10-12T08:40:15.882Z,100161.47
2022-10-12T08:41:47.600Z,100159.34
2022-10-12T08:43:00.670Z,100155.28
2022-10-12T08:44:09.265Z,100155.81
2022-10-12T08:45:33.405Z,100157.34
2022-10-12T08:46:38.910Z,100155.88
2022-10-12T08:47:56.544Z,100148.78
2022-10-12T08:49:27.811Z,100152.53
2022-10-12T08:50:33.872Z,100149.00
2022-10-12T08:51:45.940Z,100153.28
2022-10-12T08:53:05.832Z,100151.38
2022-10-12T08:54:13.296Z,100158.13
2022-10-12T08:55:44.597Z,100144.91
2022-10-12T08:56:46.941Z,100149.25
2022-10-12T08:57:50.131Z,100155.44
2022-10-12T08:58:54.255Z,100156.69
2022-10-12T08:59:56.526Z,100158.56
2022-10-12T09:01:37.449Z,100154.72
2022-10-12T09:03:14.158Z,100152.03
2022-10-12T09:04:47.454Z,100149.03
2022-10-12T09:05:58.433Z,100155.41
2022-10-12T09:07:26.756Z,100153.88
2022-10-12T09:08:44.089Z,100151.91
2022-10-12T09:09:58.189Z,100149.16
2022-10-12T09:11:23.496Z,100149.06
2022-10-12T09:12:34.645Z,100148.47
2022-10-12T09:14:06.800Z,100148.13
2022-10-12T09:15:54.150Z,100149.69
2022-10-12T09:16:57.413Z,100149.44
2022-10-12T09:18:04.208Z,100139.38
2022-10-12T09:19:18.781Z,100158.06
2022-10-12T09:20:26.783Z,100149.97
2022-10-12T09:21:32.661Z,100147.91
2022-10-12T09:22:35.488Z,100149.03
2022-10-12T09:23:43.059Z,100150.66
2022-10-12T09:24:48.813Z,100148.44
2022-10-12T09:25:51.636Z,100149.34
2022-10-12T09:27:01.002Z,100153.34
2022-10-12T09:28:26.734Z,100152.91
2022-10-12T09:29:33.991Z,100146.13
2022-10-12T09:30:43.396Z,100154.34
2022-10-12T09:32:35.555Z,100151.22
2022-10-12T09:33:59.360Z,100142.53
2022-10-12T09:35:04.612Z,100151.00
2022-10-12T09:36:07.370Z,100148.63
2022-10-12T09:37:20.170Z,100152.00
2022-10-12T09:38:25.729Z,100148.56
2022-10-12T09:39:41.229Z,100147.53
2022-10-12T09:40:45.783Z,100142.56
2022-10-12T09:41:49.917Z,100150.41
2022-10-12T09:42:55.142Z,100147.34
2022-10-12T09:44:00.916Z,100146.56
2022-10-12T09:45:15.025Z,100147.38
2022-10-12T09:46:23.612Z,100145.75
2022-10-12T09:47:32.079Z,100151.41
2022-10-12T09:48:34.601Z,100147.84
2022-10-12T09:49:47.736Z,100144.91
2022-10-12T09:50:59.193Z,100148.63
2022-10-12T09:52:02.525Z,100146.97
2022-10-12T09:53:14.201Z,100149.38
2022-10-12T09:54:19.770Z,100155.47
2022-10-12T09:56:33.914Z,100150.78
2022-10-12T09:57:43.457Z,100153.97
2022-10-12T09:59:01.026Z,100153.38
2022-10-12T10:00:23.051Z,100156.41
2022-10-12T10:01:34.373Z,100153.91
2022-10-12T10:02:49.180Z,100155.69
2022-10-12T10:04:13.611Z,100164.44
2022-10-12T10:05:30.853Z,100163.00
2022-10-12T10:06:39.320Z,100161.75
2022-10-12T10:07:43.068Z,100150.19
2022-10-12T10:08:46.542Z,100163.72
2022-10-12T10:10:06.120Z,100156.53
2022-10-12T10:11:33.767Z,100151.38
2022-10-12T10:12:53.682Z,100159.88
2022-10-12T10:13:58.058Z,100158.69
2022-10-12T10:15:01.660Z,100164.38
2022-10-12T10:16:11.345Z,100161.81
2022-10-12T10:17:16.463Z,100161.63
2022-10-12T10:18:28.731Z,100162.59
2022-10-12T10:19:31.784Z,100166.09
2022-10-12T10:20:43.673Z,100165.94
2022-10-12T10:21:46.571Z,100166.97
2022-10-12T10:22:49.483Z,100168.44
2022-10-12T10:24:00.990Z,100166.63
2022-10-12T10:25:03.558Z,100165.00
2022-10-12T10:26:06.402Z,100168.66
2022-10-12T10:27:28.333Z,100167.94
2022-10-12T10:28:33.143Z,100163.97
2022-10-12T10:29:41.883Z,100174.91
2022-10-12T10:30:56.742Z,100170.59
2022-10-12T10:32:29.315Z,100174.47
2022-10-12T10:33:34.188Z,100161.66
2022-10-12T10:34:36.493Z,100172.47
2022-10-12T10:35:38.776Z,100169.75
2022-10-12T10:36:46.263Z,100164.00
2022-10-12T10:37:56.780Z,100164.81
2022-10-12T10:39:05.964Z,100177.47
2022-10-12T10:40:19.237Z,100167.97
2022-10-12T10:41:26.793Z,100163.63
2022-10-12T10:42:37.345Z,100171.66
2022-10-12T10:43:39.895Z,100165.56
2022-10-12T10:44:50.418Z,100166.06
2022-10-12T10:45:57.790Z,100163.81
2022-10-12T10:47:11.426Z,100165.03
2022-10-12T10:48:20.801Z,100168.94
2022-10-12T10:49:38.338Z,100168.94
2022-10-12T10:50:51.327Z,100160.22
2022-10-12T10:51:58.258Z,100167.94
2022-10-12T10:53:08.296Z,100172.28
2022-10-12T10:54:35.316Z,100175.06
2022-10-12T10:56:00.174Z,100172.38
2022-10-12T10:57:28.234Z,100171.56
2022-10-12T10:58:37.321Z,100174.75
2022-10-12T10:59:42.217Z,100172.31
2022-10-12T11:00:48.297Z,100175.53
2022-10-12T11:02:03.522Z,100173.16
2022-10-12T11:03:22.752Z,100173.47
2022-10-12T11:04:35.731Z,100173.00
2022-10-12T11:05:51.808Z,100168.19
2022-10-12T11:07:00.958Z,100172.38
2022-10-12T11:08:10.331Z,100175.84
2022-10-12T11:09:21.169Z,100176.66
2022-10-12T11:10:44.346Z,100172.31
2022-10-12T11:12:09.328Z,100173.69
2022-10-12T11:13:23.882Z,100175.63
2022-10-12T11:14:34.555Z,100172.13
2022-10-12T11:16:06.517Z,100171.63
2022-10-12T11:17:26.269Z,100178.09
2022-10-12T11:18:42.065Z,100177.31
2022-10-12T11:19:53.552Z,100176.19
2022-10-12T11:21:00.218Z,100182.94
2022-10-12T11:22:12.843Z,100171.38
2022-10-12T11:23:25.759Z,100172.94
2022-10-12T11:24:43.795Z,100178.13
2022-10-12T11:25:59.936Z,100178.59
2022-10-12T11:27:17.135Z,100175.00
2022-10-12T11:28:25.860Z,100181.38
2022-10-12T11:29:28.565Z,100176.56
2022-10-12T11:30:40.189Z,100182.13
2022-10-12T11:32:10.041Z,100184.84
2022-10-12T11:33:21.619Z,100184.09
2022-10-12T11:34:26.759Z,100180.47
2022-10-12T11:39:56.283Z,100190.81
2022-10-12T11:42:43.733Z,100199.56
2022-10-12T11:45:30.462Z,100199.59
2022-10-12T11:46:56.736Z,100196.38
2022-10-12T11:48:06.112Z,100197.16
2022-10-12T11:49:19.162Z,100198.00
2022-10-12T11:50:40.249Z,100197.16
2022-10-12T11:51:51.921Z,100191.53
2022-10-12T11:52:56.955Z,100198.69
2022-10-12T11:54:04.986Z,100194.72
2022-10-12T11:55:08.459Z,100197.13
2022-10-12T11:56:20.325Z,100208.97
2022-10-12T11:57:31.850Z,100208.22
2022-10-12T11:58:59.909Z,100201.47
2022-10-12T12:00:24.979Z,100205.09
2022-10-12T12:01:39.823Z,100209.09
2022-10-12T12:02:55.540Z,100202.69
2022-10-12T12:05:49.190Z,100201.53
2022-10-12T12:07:15.734Z,100205.50
2022-10-12T12:08:41.969Z,100207.91
2022-10-12T12:09:50.756Z,100208.72
2022-10-12T12:11:12.291Z,100208.34
2022-10-12T12:12:26.115Z,100214.69
2022-10-12T12:13:28.883Z,100211.13
2022-10-12T12:14:51.622Z,100210.78
2022-10-12T12:16:00.459Z,100219.50
2022-10-12T12:17:33.419Z,100208.78
2022-10-12T12:19:23.572Z,100208.38
2022-10-12T12:22:19.935Z,100217.50
2022-10-12T12:23:45.993Z,100217.13
2022-10-12T12:24:56.411Z,100214.75
2022-10-12T12:26:27.469Z,100217.91
2022-10-12T12:27:54.269Z,100218.31
2022-10-12T12:29:20.831Z,100225.06
2022-10-12T12:30:50.994Z,100217.91
2022-10-12T12:32:02.019Z,100220.31
2022-10-12T12:33:44.492Z,100217.91
2022-10-12T12:35:01.147Z,100216.31
2022-10-12T12:36:10.601Z,100213.94
2022-10-12T12:38:46.905Z,100223.47
2022-10-12T12:39:57.006Z,100218.31
2022-10-12T12:41:05.104Z,100221.47
2022-10-12T12:42:11.566Z,100221.88
2022-10-12T12:43:30.470Z,100221.84
2022-10-12T12:46:19.188Z,100224.25
2022-10-12T12:47:45.439Z,100224.28
2022-10-12T12:48:48.095Z,100230.53
2022-10-12T12:49:55.970Z,100223.84
2022-10-12T12:51:03.213Z,100223.38
2022-10-12T12:52:23.466Z,100222.53
2022-10-12T12:53:35.849Z,100232.88
2022-10-12T12:55:03.541Z,100226.53
2022-10-12T12:56:18.092Z,100230.06
2022-10-12T12:59:38.022Z,100244.78
2022-10-12T13:02:53.325Z,100237.91
2022-10-12T13:04:45.589Z,100248.47
2022-10-12T13:06:08.252Z,100236.59
2022-10-12T13:07:31.671Z,100239.41
2022-10-12T13:08:42.303Z,100239.84
2022-10-12T13:09:46.622Z,100246.16
2022-10-12T13:11:11.303Z,100240.63
2022-10-12T13:14:31.780Z,100248.16
2022-10-12T13:17:37.308Z,100244.56
2022-10-12T13:22:09.925Z,100246.06
2022-10-12T13:24:54.996Z,100255.97